sensor_id;sensor_type;location;lat;lon;timestamp;pressure;altitude;pressure_sealevel;temperature;humidity
6827;BME280;3451;52.476;13.316;2022-08-03T00:02:13;50662.28;;;-145.19;100.00
6827;BME280;3451;52.476;13.316;2022-08-03T00:04:41;50629.81;;;-145.19;100.00
6827;BME280;3451;52.476;13.316;2022-08-03T00:07:07;50625.75;;;-145.19;100.00
6827;BME280;3451;52.476;13.316;2022-08-03T00:09:34;50629.81;;;-145.19;100.00
6827;BME280;3451;52.476;13.316;2022-08-03T00:12:01;50629.81;;;-145.19;100.00
6827;BME280;3451;52.476;13.316;2022-08-03T00:14:27;50597.34;;;-145.19;100.00
6827;BME280;3451;52.476;13.316;2022-08-03T00:16:53;50644.03;;;-145.19;100.00
6827;BME280;3451;52.476;13.316;2022-08-03T00:19:20;50621.72;;;-145.19;100.00
6827;BME280;3451;52.476;13.316;2022-08-03T00:21:46;50613.59;;;-145.19;100.00
6827;BME280;3451;52.476;13.316;2022-08-03T00:24:13;50654.16;;;-145.19;100.00
6827;BME280;3451;52.476;13.316;2022-08-03T00:26:39;50650.13;;;-145.19;100.00
6827;BME280;3451;52.476;13.316;2022-08-03T00:29:05;50617.66;;;-145.19;100.00
6827;BME280;3451;52.476;13.316;2022-08-03T00:31:32;50662.28;;;-145.19;100.00
6827;BME280;3451;52.476;13.316;2022-08-03T00:34:16;50609.53;;;-145.19;100.00
6827;BME280;3451;52.476;13.316;2022-08-03T00:36:57;50668.38;;;-145.19;100.00
6827;BME280;3451;52.476;13.316;2022-08-03T00:39:24;50615.63;;;-145.19;100.00
6827;BME280;3451;52.476;13.316;2022-08-03T00:41:50;50601.41;;;-145.19;100.00
6827;BME280;3451;52.476;13.316;2022-08-03T00:44:17;50633.88;;;-145.19;100.00
6827;BME280;3451;52.476;13.316;2022-08-03T00:46:43;50615.63;;;-145.19;100.00
6827;BME280;3451;52.476;13.316;2022-08-03T00:49:09;50635.91;;;-145.19;100.00
6827;BME280;3451;52.476;13.316;2022-08-03T00:51:36;50617.66;;;-145.19;100.00
6827;BME280;3451;52.476;13.316;2022-08-03T00:54:03;50617.66;;;-145.19;100.00
6827;BME280;3451;52.476;13.316;2022-08-03T00:56:29;50654.16;;;-145.19;100.00
6827;BME280;3451;52.476;13.316;2022-08-03T00:58:56;50650.13;;;-145.19;100.00
6827;BME280;3451;52.476;13.316;2022-08-03T01:01:23;50633.88;;;-145.19;100.00
6827;BME280;3451;52.476;13.316;2022-08-03T01:03:50;50605.47;;;-145.19;100.00
6827;BME280;3451;52.476;13.316;2022-08-03T01:06:19;50629.81;;;-145.19;100.00
6827;BME280;3451;52.476;13.316;2022-08-03T01:08:59;50633.88;;;-145.19;100.00
6827;BME280;3451;52.476;13.316;2022-08-03T01:11:49;50617.66;;;-145.19;100.00
6827;BME280;3451;52.476;13.316;2022-08-03T01:14:32;50633.88;;;-145.19;100.00
6827;BME280;3451;52.476;13.316;2022-08-03T01:17:21;50637.94;;;-145.19;100.00
6827;BME280;3451;52.476;13.316;2022-08-03T01:20:03;50652.13;;;-145.19;100.00
6827;BME280;3451;52.476;13.316;2022-08-03T01:22:44;50609.53;;;-145.19;100.00
6827;BME280;3451;52.476;13.316;2022-08-03T01:25:33;50702.88;;;-145.19;100.00
6827;BME280;3451;52.476;13.316;2022-08-03T01:28:21;50684.59;;;-145.19;100.00
6827;BME280;3451;52.476;13.316;2022-08-03T01:30:52;50686.63;;;-145.19;100.00
6827;BME280;3451;52.476;13.316;2022-08-03T01:33:45;50721.13;;;-145.19;100.00
6827;BME280;3451;52.476;13.316;2022-08-03T01:36:16;50739.38;;;-145.19;100.00
6827;BME280;3451;52.476;13.316;2022-08-03T01:38:48;50727.22;;;-145.19;100.00
6827;BME280;3451;52.476;13.316;2022-08-03T01:41:20;50743.44;;;-145.19;100.00
6827;BME280;3451;52.476;13.316;2022-08-03T01:43:47;50755.63;;;-145.19;100.00
6827;BME280;3451;52.476;13.316;2022-08-03T01:46:37;50763.72;;;-145.19;100.00
6827;BME280;3451;52.476;13.316;2022-08-03T01:49:06;50771.84;;;-145.19;100.00
6827;BME280;3451;52.476;13.316;2022-08-03T01:51:37;50763.72;;;-145.19;100.00
6827;BME280;3451;52.476;13.316;2022-08-03T01:54:25;50761.69;;;-145.19;100.00
6827;BME280;3451;52.476;13.316;2022-08-03T01:56:53;50769.81;;;-145.19;100.00
6827;BME280;3451;52.476;13.316;2022-08-03T01:59:22;50773.88;;;-145.19;100.00
6827;BME280;3451;52.476;13.316;2022-08-03T02:01:51;50751.56;;;-145.19;100.00
6827;BME280;3451;52.476;13.316;2022-08-03T02:04:40;50806.34;;;-145.19;100.00
6827;BME280;3451;52.476;13.316;2022-08-03T02:07:08;50771.84;;;-145.19;100.00
6827;BME280;3451;52.476;13.316;2022-08-03T02:09:39;50784.03;;;-145.19;100.00
6827;BME280;3451;52.476;13.316;2022-08-03T02:12:08;50755.63;;;-145.19;100.00
6827;BME280;3451;52.476;13.316;2022-08-03T02:14:36;50759.69;;;-145.19;100.00
6827;BME280;3451;52.476;13.316;2022-08-03T02:17:06;50739.38;;;-145.19;100.00
6827;BME280;3451;52.476;13.316;2022-08-03T02:19:33;50745.47;;;-145.19;100.00
6827;BME280;3451;52.476;13.316;2022-08-03T02:22:02;50755.63;;;-145.19;100.00
6827;BME280;3451;52.476;13.316;2022-08-03T02:24:30;50727.22;;;-145.19;100.00
6827;BME280;3451;52.476;13.316;2022-08-03T02:26:58;50755.63;;;-145.19;100.00
6827;BME280;3451;52.476;13.316;2022-08-03T02:29:26;50779.97;;;-145.19;100.00
6827;BME280;3451;52.476;13.316;2022-08-03T02:32:09;50800.25;;;-145.19;100.00
6827;BME280;3451;52.476;13.316;2022-08-03T02:34:39;50820.53;;;-145.19;100.00
6827;BME280;3451;52.476;13.316;2022-08-03T02:37:09;50796.19;;;-145.19;100.00
6827;BME280;3451;52.476;13.316;2022-08-03T02:39:39;50798.22;;;-145.19;100.00
6827;BME280;3451;52.476;13.316;2022-08-03T02:42:08;50800.25;;;-145.19;100.00
6827;BME280;3451;52.476;13.316;2022-08-03T02:44:38;50800.25;;;-145.19;100.00
6827;BME280;3451;52.476;13.316;2022-08-03T02:47:08;50792.13;;;-145.19;100.00
6827;BME280;3451;52.476;13.316;2022-08-03T02:49:37;50790.09;;;-145.19;100.00
6827;BME280;3451;52.476;13.316;2022-08-03T02:52:19;50834.75;;;-145.19;99.84
6827;BME280;3451;52.476;13.316;2022-08-03T02:54:48;50824.59;;;-145.19;100.00
6827;BME280;3451;52.476;13.316;2022-08-03T02:57:17;50818.50;;;-145.19;100.00
6827;BME280;3451;52.476;13.316;2022-08-03T02:59:45;50792.13;;;-145.19;100.00
6827;BME280;3451;52.476;13.316;2022-08-03T03:02:14;50824.59;;;-145.19;100.00
6827;BME280;3451;52.476;13.316;2022-08-03T03:04:43;50820.53;;;-145.19;100.00
6827;BME280;3451;52.476;13.316;2022-08-03T03:07:31;50812.44;;;-145.19;100.00
6827;BME280;3451;52.476;13.316;2022-08-03T03:10:16;50800.25;;;-145.19;100.00
6827;BME280;3451;52.476;13.316;2022-08-03T03:12:44;50832.72;;;-145.19;100.00
6827;BME280;3451;52.476;13.316;2022-08-03T03:15:11;50773.88;;;-145.19;100.00
6827;BME280;3451;52.476;13.316;2022-08-03T03:17:38;50790.09;;;-145.19;100.00
6827;BME280;3451;52.476;13.316;2022-08-03T03:20:05;50794.16;;;-145.19;100.00
6827;BME280;3451;52.476;13.316;2022-08-03T03:22:33;50779.97;;;-145.19;100.00
6827;BME280;3451;52.476;13.316;2022-08-03T03:25:00;50743.44;;;-145.19;100.00
6827;BME280;3451;52.476;13.316;2022-08-03T03:27:27;50800.25;;;-145.19;100.00
6827;BME280;3451;52.476;13.316;2022-08-03T03:29:56;50804.31;;;-145.19;100.00
6827;BME280;3451;52.476;13.316;2022-08-03T03:32:23;50792.13;;;-145.19;100.00
6827;BME280;3451;52.476;13.316;2022-08-03T03:34:49;50773.88;;;-145.19;100.00
6827;BME280;3451;52.476;13.316;2022-08-03T03:37:16;50751.56;;;-145.19;100.00
6827;BME280;3451;52.476;13.316;2022-08-03T03:39:42;50743.44;;;-145.19;100.00
6827;BME280;3451;52.476;13.316;2022-08-03T03:42:09;50747.50;;;-145.19;100.00
6827;BME280;3451;52.476;13.316;2022-08-03T03:44:36;50792.13;;;-145.19;100.00
6827;BME280;3451;52.476;13.316;2022-08-03T03:47:02;50800.25;;;-145.19;100.00
6827;BME280;3451;52.476;13.316;2022-08-03T03:49:30;50779.97;;;-145.19;100.00
6827;BME280;3451;52.476;13.316;2022-08-03T03:51:57;50794.16;;;-145.19;100.00
6827;BME280;3451;52.476;13.316;2022-08-03T03:54:23;50818.50;;;-145.19;100.00
6827;BME280;3451;52.476;13.316;2022-08-03T03:56:54;50794.16;;;-145.19;100.00
6827;BME280;3451;52.476;13.316;2022-08-03T03:59:20;50826.63;;;-145.19;100.00
6827;BME280;3451;52.476;13.316;2022-08-03T04:01:47;50840.84;;;-145.19;100.00
6827;BME280;3451;52.476;13.316;2022-08-03T04:04:24;50846.91;;;-145.19;100.00
6827;BME280;3451;52.476;13.316;2022-08-03T04:07:09;50832.72;;;-145.19;100.00
6827;BME280;3451;52.476;13.316;2022-08-03T04:09:54;50877.34;;;-145.19;100.00
6827;BME280;3451;52.476;13.316;2022-08-03T04:12:40;50859.09;;;-145.19;100.00
6827;BME280;3451;52.476;13.316;2022-08-03T04:15:18;50919.97;;;-145.19;100.00
6827;BME280;3451;52.476;13.316;2022-08-03T04:17:47;50889.53;;;-145.19;100.00
6827;BME280;3451;52.476;13.316;2022-08-03T04:20:18;50877.34;;;-145.19;100.00
6827;BME280;3451;52.476;13.316;2022-08-03T04:22:48;50895.63;;;-145.19;100.00
6827;BME280;3451;52.476;13.316;2022-08-03T04:25:17;50893.59;;;-145.19;100.00
6827;BME280;3451;52.476;13.316;2022-08-03T04:27:46;50871.28;;;-145.19;100.00
6827;BME280;3451;52.476;13.316;2022-08-03T04:30:35;50893.59;;;-145.19;100.00
6827;BME280;3451;52.476;13.316;2022-08-03T04:33:04;50836.78;;;-145.19;100.00
6827;BME280;3451;52.476;13.316;2022-08-03T04:35:32;50905.75;;;-145.19;100.00
6827;BME280;3451;52.476;13.316;2022-08-03T04:38:19;50844.88;;;-145.19;100.00
6827;BME280;3451;52.476;13.316;2022-08-03T04:40:46;50877.34;;;-145.19;100.00
6827;BME280;3451;52.476;13.316;2022-08-03T04:43:15;50901.72;;;-145.19;100.00
6827;BME280;3451;52.476;13.316;2022-08-03T04:45:45;50885.47;;;-145.19;100.00
6827;BME280;3451;52.476;13.316;2022-08-03T04:48:13;50857.06;;;-145.19;100.00
6827;BME280;3451;52.476;13.316;2022-08-03T04:50:41;50913.88;;;-145.19;100.00
6827;BME280;3451;52.476;13.316;2022-08-03T04:53:08;50917.94;;;-145.19;100.00
6827;BME280;3451;52.476;13.316;2022-08-03T04:55:34;50869.25;;;-145.19;100.00
6827;BME280;3451;52.476;13.316;2022-08-03T04:58:03;50905.75;;;-145.19;100.00
6827;BME280;3451;52.476;13.316;2022-08-03T05:00:29;50909.81;;;-145.19;100.00
6827;BME280;3451;52.476;13.316;2022-08-03T05:02:56;50936.19;;;-145.19;99.95
6827;BME280;3451;52.476;13.316;2022-08-03T05:05:23;50950.41;;;-145.19;100.00
6827;BME280;3451;52.476;13.316;2022-08-03T05:07:50;50966.63;;;-145.19;100.00
6827;BME280;3451;52.476;13.316;2022-08-03T05:10:18;50948.38;;;-145.19;99.86
6827;BME280;3451;52.476;13.316;2022-08-03T05:12:46;50966.63;;;-145.19;100.00
6827;BME280;3451;52.476;13.316;2022-08-03T05:15:13;50946.34;;;-145.19;100.00
6827;BME280;3451;52.476;13.316;2022-08-03T05:17:41;50962.56;;;-145.19;100.00
6827;BME280;3451;52.476;13.316;2022-08-03T05:20:08;50950.41;;;-145.19;100.00
6827;BME280;3451;52.476;13.316;2022-08-03T05:22:35;50954.47;;;-145.19;100.00
6827;BME280;3451;52.476;13.316;2022-08-03T05:25:02;50978.81;;;-145.19;100.00
6827;BME280;3451;52.476;13.316;2022-08-03T05:27:28;50954.47;;;-145.19;100.00
6827;BME280;3451;52.476;13.316;2022-08-03T05:29:55;50988.94;;;-145.19;100.00
6827;BME280;3451;52.476;13.316;2022-08-03T05:32:41;51003.16;;;-145.19;100.00
6827;BME280;3451;52.476;13.316;2022-08-03T05:35:07;50995.03;;;-145.19;100.00
6827;BME280;3451;52.476;13.316;2022-08-03T05:37:54;50984.91;;;-145.19;99.57
6827;BME280;3451;52.476;13.316;2022-08-03T05:40:20;51001.13;;;-145.19;99.70
6827;BME280;3451;52.476;13.316;2022-08-03T05:42:47;50999.09;;;-145.19;100.00
6827;BME280;3451;52.476;13.316;2022-08-03T05:45:13;51041.72;;;-145.19;97.99
6827;BME280;3451;52.476;13.316;2022-08-03T05:47:41;51037.66;;;-145.19;98.20
6827;BME280;3451;52.476;13.316;2022-08-03T05:50:10;51039.69;;;-145.19;98.18
6827;BME280;3451;52.476;13.316;2022-08-03T05:52:37;51084.31;;;-145.19;95.52
6827;BME280;3451;52.476;13.316;2022-08-03T05:55:07;51088.38;;;-145.19;94.96
6827;BME280;3451;52.476;13.316;2022-08-03T05:57:34;51084.31;;;-145.19;97.94
6827;BME280;3451;52.476;13.316;2022-08-03T06:00:09;51084.31;;;-145.19;96.50
6827;BME280;3451;52.476;13.316;2022-08-03T06:02:38;51120.84;;;-145.19;95.12
6827;BME280;3451;52.476;13.316;2022-08-03T06:05:05;51106.63;;;-145.19;92.38
6827;BME280;3451;52.476;13.316;2022-08-03T06:07:32;51149.25;;;-145.19;91.59
6827;BME280;3451;52.476;13.316;2022-08-03T06:09:58;51108.66;;;-145.19;92.34
6827;BME280;3451;52.476;13.316;2022-08-03T06:12:47;51133.03;;;-145.19;92.60
6827;BME280;3451;52.476;13.316;2022-08-03T06:15:14;51169.53;;;-145.19;92.46
6827;BME280;3451;52.476;13.316;2022-08-03T06:17:48;51143.16;;;-145.19;92.47
6827;BME280;3451;52.476;13.316;2022-08-03T06:20:16;51208.09;;;-145.19;90.66
6827;BME280;3451;52.476;13.316;2022-08-03T06:22:44;51191.88;;;-145.19;89.02
6827;BME280;3451;52.476;13.316;2022-08-03T06:25:17;51175.63;;;-145.19;85.70
6827;BME280;3451;52.476;13.316;2022-08-03T06:27:46;51206.06;;;-145.19;85.57
6827;BME280;3451;52.476;13.316;2022-08-03T06:30:13;51220.28;;;-145.19;86.41
6827;BME280;3451;52.476;13.316;2022-08-03T06:32:45;51220.28;;;-145.19;85.32
6827;BME280;3451;52.476;13.316;2022-08-03T06:35:17;51238.53;;;-145.19;85.45
6827;BME280;3451;52.476;13.316;2022-08-03T06:37:46;51256.81;;;-145.19;84.94
6827;BME280;3451;52.476;13.316;2022-08-03T06:40:15;51226.38;;;-145.19;83.66
6827;BME280;3451;52.476;13.316;2022-08-03T06:42:49;51279.13;;;-145.19;81.47
6827;BME280;3451;52.476;13.316;2022-08-03T06:45:16;51236.50;;;-145.19;79.62
6827;BME280;3451;52.476;13.316;2022-08-03T06:47:42;51271.00;;;-145.19;80.12
6827;BME280;3451;52.476;13.316;2022-08-03T06:50:09;51279.13;;;-145.19;78.35
6827;BME280;3451;52.476;13.316;2022-08-03T06:52:42;51291.31;;;-145.19;78.54
6827;BME280;3451;52.476;13.316;2022-08-03T06:55:10;51315.66;;;-145.19;75.10
6827;BME280;3451;52.476;13.316;2022-08-03T06:57:36;51313.63;;;-145.19;77.68
6827;BME280;3451;52.476;13.316;2022-08-03T07:00:03;51340.00;;;-145.19;78.14
6827;BME280;3451;52.476;13.316;2022-08-03T07:02:37;51307.53;;;-145.19;74.27
6827;BME280;3451;52.476;13.316;2022-08-03T07:05:05;51317.69;;;-145.19;74.15
6827;BME280;3451;52.476;13.316;2022-08-03T07:07:32;51346.09;;;-145.19;72.45
6827;BME280;3451;52.476;13.316;2022-08-03T07:09:58;51380.59;;;-145.19;75.44
6827;BME280;3451;52.476;13.316;2022-08-03T07:12:26;51388.69;;;-145.19;73.69
6827;BME280;3451;52.476;13.316;2022-08-03T07:14:54;51384.66;;;-145.19;73.96
6827;BME280;3451;52.476;13.316;2022-08-03T07:17:27;51384.66;;;-145.19;67.87
6827;BME280;3451;52.476;13.316;2022-08-03T07:19:53;51429.28;;;-145.19;69.86
6827;BME280;3451;52.476;13.316;2022-08-03T07:22:19;51415.09;;;-145.19;64.00
6827;BME280;3451;52.476;13.316;2022-08-03T07:24:46;51427.25;;;-145.19;62.28
6827;BME280;3451;52.476;13.316;2022-08-03T07:27:14;51445.53;;;-145.19;61.37
6827;BME280;3451;52.476;13.316;2022-08-03T07:29:41;51506.41;;;-145.19;59.17
6827;BME280;3451;52.476;13.316;2022-08-03T07:32:07;51557.13;;;-145.19;60.38
6827;BME280;3451;52.476;13.316;2022-08-03T07:34:34;51601.78;;;-145.19;58.12
6827;BME280;3451;52.476;13.316;2022-08-03T07:37:00;51567.28;;;-145.19;53.85
6827;BME280;3451;52.476;13.316;2022-08-03T07:39:27;51676.88;;;-145.19;54.77
6827;BME280;3451;52.476;13.316;2022-08-03T07:41:53;51668.75;;;-145.19;49.43
6827;BME280;3451;52.476;13.316;2022-08-03T07:44:20;51754.00;;;-145.19;49.45
6827;BME280;3451;52.476;13.316;2022-08-03T07:46:46;51827.06;;;-145.19;50.16
6827;BME280;3451;52.476;13.316;2022-08-03T07:49:13;51782.41;;;-145.19;46.73
6827;BME280;3451;52.476;13.316;2022-08-03T07:51:39;51839.22;;;-145.19;44.65
6827;BME280;3451;52.476;13.316;2022-08-03T07:54:06;51782.41;;;-145.19;44.21
6827;BME280;3451;52.476;13.316;2022-08-03T07:56:36;51770.22;;;-145.19;44.57
6827;BME280;3451;52.476;13.316;2022-08-03T07:59:02;51782.41;;;-145.19;43.26
6827;BME280;3451;52.476;13.316;2022-08-03T08:01:29;51873.72;;;-145.19;42.35
6827;BME280;3451;52.476;13.316;2022-08-03T08:03:58;51889.97;;;-145.19;40.79
6827;BME280;3451;52.476;13.316;2022-08-03T08:06:24;51857.50;;;-145.19;40.23
6827;BME280;3451;52.476;13.316;2022-08-03T08:08:51;51912.28;;;-145.19;42.34
6827;BME280;3451;52.476;13.316;2022-08-03T08:11:18;51948.81;;;-145.19;41.89
6827;BME280;3451;52.476;13.316;2022-08-03T08:13:47;51934.63;;;-145.19;36.99
6827;BME280;3451;52.476;13.316;2022-08-03T08:16:13;51930.56;;;-145.19;36.05
6827;BME280;3451;52.476;13.316;2022-08-03T08:18:40;51934.63;;;-145.19;34.94
6827;BME280;3451;52.476;13.316;2022-08-03T08:21:06;51928.53;;;-145.19;36.73
6827;BME280;3451;52.476;13.316;2022-08-03T08:23:34;51989.41;;;-145.19;39.42
6827;BME280;3451;52.476;13.316;2022-08-03T08:26:09;52046.25;;;-145.19;36.27
6827;BME280;3451;52.476;13.316;2022-08-03T08:28:35;52025.94;;;-145.19;38.03
6827;BME280;3451;52.476;13.316;2022-08-03T08:31:02;51993.47;;;-145.19;34.46
6827;BME280;3451;52.476;13.316;2022-08-03T08:33:28;52070.59;;;-145.19;34.44
6827;BME280;3451;52.476;13.316;2022-08-03T08:36:15;52042.19;;;-145.19;35.38
6827;BME280;3451;52.476;13.316;2022-08-03T08:38:42;52094.97;;;-145.19;33.24
6827;BME280;3451;52.476;13.316;2022-08-03T08:41:10;52078.72;;;-145.19;32.24
6827;BME280;3451;52.476;13.316;2022-08-03T08:43:38;52074.66;;;-145.19;34.14
6827;BME280;3451;52.476;13.316;2022-08-03T08:46:04;52050.31;;;-145.19;34.45
6827;BME280;3451;52.476;13.316;2022-08-03T08:48:34;52058.44;;;-145.19;36.04
6827;BME280;3451;52.476;13.316;2022-08-03T08:51:04;52038.13;;;-145.19;33.97
6827;BME280;3451;52.476;13.316;2022-08-03T08:53:35;52056.41;;;-145.19;33.08
6827;BME280;3451;52.476;13.316;2022-08-03T08:56:02;52009.72;;;-145.19;34.43
6827;BME280;3451;52.476;13.316;2022-08-03T08:58:34;52030.00;;;-145.19;34.34
6827;BME280;3451;52.476;13.316;2022-08-03T09:01:03;52076.69;;;-145.19;36.71
6827;BME280;3451;52.476;13.316;2022-08-03T09:03:32;52121.34;;;-145.19;36.89
6827;BME280;3451;52.476;13.316;2022-08-03T09:06:00;52017.84;;;-145.19;35.91
6827;BME280;3451;52.476;13.316;2022-08-03T09:08:28;52019.88;;;-145.19;32.82
6827;BME280;3451;52.476;13.316;2022-08-03T09:10:55;52042.19;;;-145.19;34.39
6827;BME280;3451;52.476;13.316;2022-08-03T09:13:21;52011.75;;;-145.19;33.89
6827;BME280;3451;52.476;13.316;2022-08-03T09:15:48;51999.56;;;-145.19;35.76
6827;BME280;3451;52.476;13.316;2022-08-03T09:18:33;52042.19;;;-145.19;32.39
6827;BME280;3451;52.476;13.316;2022-08-03T09:21:14;52062.47;;;-145.19;35.11
6827;BME280;3451;52.476;13.316;2022-08-03T09:23:57;51971.16;;;-145.19;34.62
6827;BME280;3451;52.476;13.316;2022-08-03T09:26:30;51997.53;;;-145.19;34.42
6827;BME280;3451;52.476;13.316;2022-08-03T09:31:38;52068.56;;;-145.19;35.37
6827;BME280;3451;52.476;13.316;2022-08-03T09:34:11;52001.59;;;-145.19;34.15
6827;BME280;3451;52.476;13.316;2022-08-03T09:36:46;52001.59;;;-145.19;34.05
6827;BME280;3451;52.476;13.316;2022-08-03T09:39:15;52107.13;;;-145.19;35.73
6827;BME280;3451;52.476;13.316;2022-08-03T09:41:44;52038.13;;;-145.19;35.32
6827;BME280;3451;52.476;13.316;2022-08-03T09:44:11;52034.06;;;-145.19;33.23
6827;BME280;3451;52.476;13.316;2022-08-03T09:46:54;52062.47;;;-145.19;34.09
6827;BME280;3451;52.476;13.316;2022-08-03T09:49:22;52005.66;;;-145.19;32.43
6827;BME280;3451;52.476;13.316;2022-08-03T09:51:48;52007.69;;;-145.19;34.04
6827;BME280;3451;52.476;13.316;2022-08-03T09:54:35;52034.06;;;-145.19;34.75
6827;BME280;3451;52.476;13.316;2022-08-03T09:57:01;52003.63;;;-145.19;33.90
6827;BME280;3451;52.476;13.316;2022-08-03T09:59:30;52013.78;;;-145.19;34.45
6827;BME280;3451;52.476;13.316;2022-08-03T10:01:58;52009.72;;;-145.19;33.46
6827;BME280;3451;52.476;13.316;2022-08-03T10:04:25;52052.34;;;-145.19;33.95
6827;BME280;3451;52.476;13.316;2022-08-03T10:07:06;52042.19;;;-145.19;36.00
6827;BME280;3451;52.476;13.316;2022-08-03T10:09:35;52025.94;;;-145.19;35.94
6827;BME280;3451;52.476;13.316;2022-08-03T10:12:12;52080.75;;;-145.19;36.66
6827;BME280;3451;52.476;13.316;2022-08-03T10:14:40;52056.41;;;-145.19;34.05
6827;BME280;3451;52.476;13.316;2022-08-03T10:17:08;51985.34;;;-145.19;34.83
6827;BME280;3451;52.476;13.316;2022-08-03T10:19:34;52103.06;;;-145.19;33.86
6827;BME280;3451;52.476;13.316;2022-08-03T10:22:03;52060.47;;;-145.19;33.39
6827;BME280;3451;52.476;13.316;2022-08-03T10:24:33;52003.63;;;-145.19;33.32
6827;BME280;3451;52.476;13.316;2022-08-03T10:27:06;51965.06;;;-145.19;35.20
6827;BME280;3451;52.476;13.316;2022-08-03T10:29:36;52025.94;;;-145.19;36.42
6827;BME280;3451;52.476;13.316;2022-08-03T10:32:09;51971.16;;;-145.19;37.44
6827;BME280;3451;52.476;13.316;2022-08-03T10:34:41;51975.22;;;-145.19;35.89
6827;BME280;3451;52.476;13.316;2022-08-03T10:37:10;52021.88;;;-145.19;37.04
6827;BME280;3451;52.476;13.316;2022-08-03T10:39:38;52001.59;;;-145.19;34.73
6827;BME280;3451;52.476;13.316;2022-08-03T10:42:25;52017.84;;;-145.19;36.41
6827;BME280;3451;52.476;13.316;2022-08-03T10:45:02;52017.84;;;-145.19;35.94
6827;BME280;3451;52.476;13.316;2022-08-03T10:47:29;52001.59;;;-145.19;34.04
6827;BME280;3451;52.476;13.316;2022-08-03T10:49:56;52034.06;;;-145.19;36.47
6827;BME280;3451;52.476;13.316;2022-08-03T10:52:24;51989.41;;;-145.19;35.10
6827;BME280;3451;52.476;13.316;2022-08-03T10:54:59;52001.59;;;-145.19;37.36
6827;BME280;3451;52.476;13.316;2022-08-03T10:57:50;51987.38;;;-145.19;38.44
6827;BME280;3451;52.476;13.316;2022-08-03T11:00:25;51780.38;;;-145.19;42.57
6827;BME280;3451;52.476;13.316;2022-08-03T11:03:04;51756.03;;;-145.19;44.05
6827;BME280;3451;52.476;13.316;2022-08-03T11:05:37;51865.63;;;-145.19;40.05
6827;BME280;3451;52.476;13.316;2022-08-03T11:08:21;51894.03;;;-145.19;35.32
6827;BME280;3451;52.476;13.316;2022-08-03T11:10:50;51906.22;;;-145.19;35.68
6827;BME280;3451;52.476;13.316;2022-08-03T11:13:19;51875.75;;;-145.19;35.97
6827;BME280;3451;52.476;13.316;2022-08-03T11:15:48;51932.59;;;-145.19;36.99
6827;BME280;3451;52.476;13.316;2022-08-03T11:18:15;51892.00;;;-145.19;37.80
6827;BME280;3451;52.476;13.316;2022-08-03T11:20:46;51782.41;;;-145.19;42.06
6827;BME280;3451;52.476;13.316;2022-08-03T11:23:15;51772.25;;;-145.19;43.29
6827;BME280;3451;52.476;13.316;2022-08-03T11:28:39;51782.41;;;-145.19;43.09
6827;BME280;3451;52.476;13.316;2022-08-03T11:34:08;51676.88;;;-145.19;46.12
6827;BME280;3451;52.476;13.316;2022-08-03T11:39:44;51790.53;;;-145.19;42.41
6827;BME280;3451;52.476;13.316;2022-08-03T11:44:52;51857.50;;;-145.19;42.57
6827;BME280;3451;52.476;13.316;2022-08-03T11:47:21;51676.88;;;-145.19;45.38
6827;BME280;3451;52.476;13.316;2022-08-03T11:49:49;51735.72;;;-145.19;45.98
6827;BME280;3451;52.476;13.316;2022-08-03T11:52:17;51711.38;;;-145.19;46.33
6827;BME280;3451;52.476;13.316;2022-08-03T11:54:53;51800.66;;;-145.19;43.79
6827;BME280;3451;52.476;13.316;2022-08-03T11:57:29;51804.72;;;-145.19;41.21
6827;BME280;3451;52.476;13.316;2022-08-03T12:03:07;51766.16;;;-145.19;39.61
6827;BME280;3451;52.476;13.316;2022-08-03T12:05:41;51786.47;;;-145.19;39.34
6827;BME280;3451;52.476;13.316;2022-08-03T12:10:53;51760.09;;;-145.19;41.86
6827;BME280;3451;52.476;13.316;2022-08-03T12:13:21;51733.69;;;-145.19;41.45
6827;BME280;3451;52.476;13.316;2022-08-03T12:16:08;51774.28;;;-145.19;41.85
6827;BME280;3451;52.476;13.316;2022-08-03T12:18:35;51762.09;;;-145.19;41.25
6827;BME280;3451;52.476;13.316;2022-08-03T12:21:05;51737.75;;;-145.19;42.30
6827;BME280;3451;52.476;13.316;2022-08-03T12:23:31;51774.28;;;-145.19;41.49
6827;BME280;3451;52.476;13.316;2022-08-03T12:26:05;51776.31;;;-145.19;41.50
6827;BME280;3451;52.476;13.316;2022-08-03T12:28:33;51778.34;;;-145.19;40.77
6827;BME280;3451;52.476;13.316;2022-08-03T12:31:05;51782.41;;;-145.19;40.22
6827;BME280;3451;52.476;13.316;2022-08-03T12:33:59;51835.16;;;-145.19;38.17
6827;BME280;3451;52.476;13.316;2022-08-03T12:36:30;51837.19;;;-145.19;39.20
6827;BME280;3451;52.476;13.316;2022-08-03T12:38:59;51887.94;;;-145.19;39.17
6827;BME280;3451;52.476;13.316;2022-08-03T12:41:37;51762.09;;;-145.19;42.31
6827;BME280;3451;52.476;13.316;2022-08-03T12:44:06;51770.22;;;-145.19;43.28
6827;BME280;3451;52.476;13.316;2022-08-03T12:54:20;51798.63;;;-145.19;41.49
6827;BME280;3451;52.476;13.316;2022-08-03T12:59:30;51727.59;;;-145.19;44.07
6827;BME280;3451;52.476;13.316;2022-08-03T13:02:13;51685.00;;;-145.19;47.80
6827;BME280;3451;52.476;13.316;2022-08-03T13:04:44;51733.69;;;-145.19;45.21
6827;BME280;3451;52.476;13.316;2022-08-03T13:07:11;51721.53;;;-145.19;43.83
6827;BME280;3451;52.476;13.316;2022-08-03T13:10:00;51741.81;;;-145.19;42.82
6827;BME280;3451;52.476;13.316;2022-08-03T13:12:45;51788.50;;;-145.19;42.46
6827;BME280;3451;52.476;13.316;2022-08-03T13:15:11;51782.41;;;-145.19;41.42
6827;BME280;3451;52.476;13.316;2022-08-03T13:17:38;51776.31;;;-145.19;43.14
6827;BME280;3451;52.476;13.316;2022-08-03T13:20:06;51735.72;;;-145.19;44.32
6827;BME280;3451;52.476;13.316;2022-08-03T13:22:32;51648.47;;;-145.19;47.92
6827;BME280;3451;52.476;13.316;2022-08-03T13:24:59;51713.41;;;-145.19;44.02
6827;BME280;3451;52.476;13.316;2022-08-03T13:27:27;51693.09;;;-145.19;44.23
6827;BME280;3451;52.476;13.316;2022-08-03T13:30:14;51705.28;;;-145.19;44.19
6827;BME280;3451;52.476;13.316;2022-08-03T13:32:55;51660.63;;;-145.19;46.61
6827;BME280;3451;52.476;13.316;2022-08-03T13:35:24;51668.75;;;-145.19;48.36